sensor_id;sensor_type;location;lat;lon;timestamp;pressure;altitude;pressure_sealevel;temperature;humidity
58875;BME280;44652;49.040;12.126;2024-02-26T00:01:51;95954.38;;;2.03;100.00
58875;BME280;44652;49.040;12.126;2024-02-26T00:04:18;95978.25;;;2.18;100.00
58875;BME280;44652;49.040;12.126;2024-02-26T00:06:45;95969.44;;;2.13;100.00
58875;BME280;44652;49.040;12.126;2024-02-26T00:09:13;95946.56;;;1.76;100.00
58875;BME280;44652;49.040;12.126;2024-02-26T00:11:39;95949.91;;;1.46;100.00
58875;BME280;44652;49.040;12.126;2024-02-26T00:14:06;95954.44;;;1.52;100.00
58875;BME280;44652;49.040;12.126;2024-02-26T00:16:33;95953.44;;;1.49;100.00
58875;BME280;44652;49.040;12.126;2024-02-26T00:19:00;95974.50;;;1.58;100.00
58875;BME280;44652;49.040;12.126;2024-02-26T00:21:27;95972.06;;;1.62;100.00
58875;BME280;44652;49.040;12.126;2024-02-26T00:23:54;95958.53;;;1.45;100.00
58875;BME280;44652;49.040;12.126;2024-02-26T00:26:21;95939.84;;;1.30;100.00
58875;BME280;44652;49.040;12.126;2024-02-26T00:28:48;95940.59;;;1.28;100.00
58875;BME280;44652;49.040;12.126;2024-02-26T00:31:16;95941.81;;;1.13;100.00
58875;BME280;44652;49.040;12.126;2024-02-26T00:33:43;95951.09;;;1.31;100.00
58875;BME280;44652;49.040;12.126;2024-02-26T00:36:10;95937.28;;;1.06;100.00
58875;BME280;44652;49.040;12.126;2024-02-26T00:38:37;95965.25;;;1.15;100.00
58875;BME280;44652;49.040;12.126;2024-02-26T00:41:04;95966.28;;;1.20;100.00
58875;BME280;44652;49.040;12.126;2024-02-26T00:43:31;95966.56;;;1.04;100.00
58875;BME280;44652;49.040;12.126;2024-02-26T05:59:36;95955.59;;;-0.67;100.00
58875;BME280;44652;49.040;12.126;2024-02-26T06:02:03;95958.97;;;-0.68;100.00
58875;BME280;44652;49.040;12.126;2024-02-26T06:04:30;95972.81;;;-0.68;100.00
58875;BME280;44652;49.040;12.126;2024-02-26T06:06:57;95983.47;;;-0.60;100.00
58875;BME280;44652;49.040;12.126;2024-02-26T06:09:24;95981.19;;;-0.74;100.00
58875;BME280;44652;49.040;12.126;2024-02-26T06:11:51;95986.69;;;-0.66;100.00
58875;BME280;44652;49.040;12.126;2024-02-26T06:14:19;95980.16;;;-0.77;100.00
58875;BME280;44652;49.040;12.126;2024-02-26T06:16:46;95965.69;;;-0.93;100.00
58875;BME280;44652;49.040;12.126;2024-02-26T06:19:13;95958.19;;;-1.06;100.00
58875;BME280;44652;49.040;12.126;2024-02-26T06:21:40;95964.38;;;-1.03;100.00
58875;BME280;44652;49.040;12.126;2024-02-26T06:24:07;95957.41;;;-1.05;100.00
58875;BME280;44652;49.040;12.126;2024-02-26T06:26:34;95967.06;;;-1.20;100.00
58875;BME280;44652;49.040;12.126;2024-02-26T06:29:01;95974.59;;;-0.86;100.00
58875;BME280;44652;49.040;12.126;2024-02-26T06:31:27;95978.44;;;-0.98;100.00
58875;BME280;44652;49.040;12.126;2024-02-26T06:33:54;95980.00;;;-1.01;100.00
58875;BME280;44652;49.040;12.126;2024-02-26T06:36:22;95988.47;;;-0.84;100.00
58875;BME280;44652;49.040;12.126;2024-02-26T06:38:50;95994.78;;;-0.78;100.00
58875;BME280;44652;49.040;12.126;2024-02-26T06:41:17;95995.00;;;-0.73;100.00
58875;BME280;44652;49.040;12.126;2024-02-26T06:43:44;96001.44;;;-0.63;100.00
58875;BME280;44652;49.040;12.126;2024-02-26T06:46:11;96011.59;;;-0.68;100.00
58875;BME280;44652;49.040;12.126;2024-02-26T06:48:37;95999.81;;;-0.81;100.00
58875;BME280;44652;49.040;12.126;2024-02-26T06:51:04;95986.06;;;-0.80;100.00
58875;BME280;44652;49.040;12.126;2024-02-26T06:53:31;95992.41;;;-0.73;100.00
58875;BME280;44652;49.040;12.126;2024-02-26T06:55:58;95990.66;;;-0.53;100.00
58875;BME280;44652;49.040;12.126;2024-02-26T06:58:24;96005.06;;;-0.60;100.00
58875;BME280;44652;49.040;12.126;2024-02-26T07:00:51;96017.00;;;-0.83;100.00
58875;BME280;44652;49.040;12.126;2024-02-26T07:03:18;96013.06;;;-0.54;100.00
58875;BME280;44652;49.040;12.126;2024-02-26T07:05:45;96029.00;;;-0.23;100.00
58875;BME280;44652;49.040;12.126;2024-02-26T07:08:12;96010.00;;;-0.24;100.00
58875;BME280;44652;49.040;12.126;2024-02-26T07:10:39;96045.25;;;-0.07;100.00
58875;BME280;44652;49.040;12.126;2024-02-26T07:13:06;96029.00;;;-0.03;100.00
58875;BME280;44652;49.040;12.126;2024-02-26T07:15:32;96018.25;;;0.09;100.00
58875;BME280;44652;49.040;12.126;2024-02-26T07:18:00;96011.50;;;0.13;100.00
58875;BME280;44652;49.040;12.126;2024-02-26T07:20:30;96034.38;;;0.23;100.00
58875;BME280;44652;49.040;12.126;2024-02-26T07:22:57;96039.31;;;0.39;100.00
58875;BME280;44652;49.040;12.126;2024-02-26T07:25:24;96026.06;;;0.11;100.00
58875;BME280;44652;49.040;12.126;2024-02-26T07:27:51;96023.50;;;0.11;100.00
58875;BME280;44652;49.040;12.126;2024-02-26T07:30:18;96015.56;;;0.29;100.00
58875;BME280;44652;49.040;12.126;2024-02-26T07:32:44;96023.81;;;0.41;100.00
58875;BME280;44652;49.040;12.126;2024-02-26T07:35:16;96032.91;;;0.52;100.00
58875;BME280;44652;49.040;12.126;2024-02-26T07:37:44;96050.31;;;0.77;100.00
58875;BME280;44652;49.040;12.126;2024-02-26T07:40:11;96053.19;;;0.85;100.00
58875;BME280;44652;49.040;12.126;2024-02-26T07:42:41;96028.00;;;0.82;100.00
58875;BME280;44652;49.040;12.126;2024-02-26T07:45:08;96023.81;;;0.86;100.00
58875;BME280;44652;49.040;12.126;2024-02-26T07:47:35;96026.88;;;0.98;100.00
58875;BME280;44652;49.040;12.126;2024-02-26T07:50:02;96043.44;;;1.02;100.00
58875;BME280;44652;49.040;12.126;2024-02-26T07:52:29;96036.44;;;0.99;100.00
58875;BME280;44652;49.040;12.126;2024-02-26T07:54:56;96043.91;;;1.14;100.00
58875;BME280;44652;49.040;12.126;2024-02-26T07:57:22;96056.81;;;1.36;100.00
58875;BME280;44652;49.040;12.126;2024-02-26T07:59:49;96036.00;;;1.35;100.00
58875;BME280;44652;49.040;12.126;2024-02-26T08:02:17;96063.78;;;1.61;100.00
58875;BME280;44652;49.040;12.126;2024-02-26T08:04:43;96064.28;;;1.75;100.00
58875;BME280;44652;49.040;12.126;2024-02-26T08:07:10;96041.78;;;1.76;100.00
58875;BME280;44652;49.040;12.126;2024-02-26T08:09:37;96053.16;;;2.05;100.00
58875;BME280;44652;49.040;12.126;2024-02-26T08:12:04;96046.66;;;2.17;100.00
58875;BME280;44652;49.040;12.126;2024-02-26T08:14:31;96051.16;;;2.23;100.00
58875;BME280;44652;49.040;12.126;2024-02-26T08:16:59;96050.84;;;2.39;100.00
58875;BME280;44652;49.040;12.126;2024-02-26T08:19:26;96039.56;;;2.39;100.00
58875;BME280;44652;49.040;12.126;2024-02-26T08:21:54;96066.94;;;2.55;100.00
58875;BME280;44652;49.040;12.126;2024-02-26T08:24:21;96061.91;;;2.61;100.00
58875;BME280;44652;49.040;12.126;2024-02-26T08:26:47;96053.75;;;2.77;100.00
58875;BME280;44652;49.040;12.126;2024-02-26T08:29:14;96048.38;;;2.73;100.00
58875;BME280;44652;49.040;12.126;2024-02-26T08:31:41;96050.03;;;2.98;100.00
58875;BME280;44652;49.040;12.126;2024-02-26T08:34:08;96048.31;;;2.98;100.00
58875;BME280;44652;49.040;12.126;2024-02-26T08:36:35;96040.50;;;3.28;100.00
58875;BME280;44652;49.040;12.126;2024-02-26T08:39:02;96039.66;;;3.29;100.00
58875;BME280;44652;49.040;12.126;2024-02-26T08:41:29;96050.25;;;3.34;100.00
58875;BME280;44652;49.040;12.126;2024-02-26T08:43:56;96045.72;;;3.58;97.76
58875;BME280;44652;49.040;12.126;2024-02-26T08:46:24;96041.16;;;3.51;96.92
58875;BME280;44652;49.040;12.126;2024-02-26T08:48:51;96059.13;;;3.72;96.40
58875;BME280;44652;49.040;12.126;2024-02-26T08:51:18;96066.88;;;3.71;97.44
58875;BME280;44652;49.040;12.126;2024-02-26T08:53:44;96063.66;;;3.79;97.96
58875;BME280;44652;49.040;12.126;2024-02-26T08:56:11;96055.56;;;3.70;97.20
58875;BME280;44652;49.040;12.126;2024-02-26T08:58:44;96055.53;;;3.69;97.55
58875;BME280;44652;49.040;12.126;2024-02-26T09:01:12;96054.63;;;3.98;98.84
58875;BME280;44652;49.040;12.126;2024-02-26T09:03:39;96070.56;;;4.10;96.25
58875;BME280;44652;49.040;12.126;2024-02-26T09:06:06;96050.97;;;4.26;95.73
58875;BME280;44652;49.040;12.126;2024-02-26T09:08:33;96041.34;;;4.24;95.26
58875;BME280;44652;49.040;12.126;2024-02-26T09:11:02;96046.56;;;4.58;95.57
58875;BME280;44652;49.040;12.126;2024-02-26T09:13:30;96044.31;;;4.74;93.53
58875;BME280;44652;49.040;12.126;2024-02-26T09:15:56;96061.81;;;4.79;93.14
58875;BME280;44652;49.040;12.126;2024-02-26T09:18:23;96064.53;;;4.84;91.91
58875;BME280;44652;49.040;12.126;2024-02-26T09:20:50;96072.84;;;5.04;91.38
58875;BME280;44652;49.040;12.126;2024-02-26T09:23:17;96065.09;;;5.08;91.76
58875;BME280;44652;49.040;12.126;2024-02-26T09:25:44;96068.06;;;5.24;90.13
58875;BME280;44652;49.040;12.126;2024-02-26T09:28:10;96044.41;;;5.18;91.28
58875;BME280;44652;49.040;12.126;2024-02-26T09:30:37;96051.69;;;5.34;90.38
58875;BME280;44652;49.040;12.126;2024-02-26T09:33:05;96034.53;;;5.45;89.36
58875;BME280;44652;49.040;12.126;2024-02-26T09:35:32;96042.00;;;5.27;89.04
58875;BME280;44652;49.040;12.126;2024-02-26T09:37:58;96032.91;;;5.50;88.89
58875;BME280;44652;49.040;12.126;2024-02-26T09:40:25;96047.09;;;5.63;87.62
58875;BME280;44652;49.040;12.126;2024-02-26T09:42:53;96062.34;;;5.87;87.31
58875;BME280;44652;49.040;12.126;2024-02-26T09:45:25;96060.94;;;6.01;86.59
58875;BME280;44652;49.040;12.126;2024-02-26T09:47:55;96052.19;;;6.01;82.07
58875;BME280;44652;49.040;12.126;2024-02-26T09:50:22;96072.50;;;6.14;83.13
58875;BME280;44652;49.040;12.126;2024-02-26T09:52:51;96068.44;;;6.31;78.16
58875;BME280;44652;49.040;12.126;2024-02-26T09:55:18;96053.50;;;6.24;77.24
58875;BME280;44652;49.040;12.126;2024-02-26T09:57:46;96055.56;;;6.42;77.83
58875;BME280;44652;49.040;12.126;2024-02-26T10:00:17;96053.00;;;6.45;78.70
58875;BME280;44652;49.040;12.126;2024-02-26T10:02:46;96055.75;;;6.54;76.85
58875;BME280;44652;49.040;12.126;2024-02-26T10:05:18;96037.28;;;6.45;76.97
58875;BME280;44652;49.040;12.126;2024-02-26T10:07:46;96050.63;;;6.61;76.83
58875;BME280;44652;49.040;12.126;2024-02-26T10:10:14;96057.78;;;6.71;75.81
58875;BME280;44652;49.040;12.126;2024-02-26T10:12:41;96065.06;;;6.92;75.26
58875;BME280;44652;49.040;12.126;2024-02-26T10:15:08;96049.41;;;6.95;74.90
58875;BME280;44652;49.040;12.126;2024-02-26T10:17:35;96047.78;;;7.04;74.66
58875;BME280;44652;49.040;12.126;2024-02-26T10:20:13;96064.44;;;7.06;73.05
58875;BME280;44652;49.040;12.126;2024-02-26T10:23:02;96071.72;;;7.27;73.64
58875;BME280;44652;49.040;12.126;2024-02-26T10:25:29;96061.97;;;7.17;72.79
58875;BME280;44652;49.040;12.126;2024-02-26T10:28:01;96062.22;;;7.36;72.39
58875;BME280;44652;49.040;12.126;2024-02-26T10:30:29;96055.25;;;7.36;73.16
58875;BME280;44652;49.040;12.126;2024-02-26T10:32:56;96082.72;;;7.69;73.22
58875;BME280;44652;49.040;12.126;2024-02-26T10:35:24;96074.81;;;7.64;71.24
58875;BME280;44652;49.040;12.126;2024-02-26T10:37:51;96060.88;;;7.67;72.30
58875;BME280;44652;49.040;12.126;2024-02-26T10:40:19;96076.13;;;8.00;71.33
58875;BME280;44652;49.040;12.126;2024-02-26T10:42:45;96061.19;;;7.94;70.72
58875;BME280;44652;49.040;12.126;2024-02-26T10:45:12;96062.97;;;7.98;70.49
58875;BME280;44652;49.040;12.126;2024-02-26T10:47:40;96052.81;;;8.29;70.83
58875;BME280;44652;49.040;12.126;2024-02-26T10:50:13;96052.88;;;8.34;70.11
58875;BME280;44652;49.040;12.126;2024-02-26T10:52:42;96040.69;;;8.39;67.65
58875;BME280;44652;49.040;12.126;2024-02-26T10:55:14;96048.56;;;8.37;67.44
58875;BME280;44652;49.040;12.126;2024-02-26T10:57:42;96049.59;;;8.53;67.12
58875;BME280;44652;49.040;12.126;2024-02-26T11:00:15;96062.09;;;8.85;65.72
58875;BME280;44652;49.040;12.126;2024-02-26T11:02:44;96045.72;;;9.22;64.28
58875;BME280;44652;49.040;12.126;2024-02-26T11:05:12;96061.41;;;9.10;65.49
58875;BME280;44652;49.040;12.126;2024-02-26T11:07:41;96071.97;;;9.19;64.10
58875;BME280;44652;49.040;12.126;2024-02-26T11:10:09;96062.47;;;9.43;63.91
58875;BME280;44652;49.040;12.126;2024-02-26T11:12:39;96066.94;;;9.58;62.45
58875;BME280;44652;49.040;12.126;2024-02-26T11:15:06;96070.47;;;9.64;61.82
58875;BME280;44652;49.040;12.126;2024-02-26T11:17:33;96061.63;;;9.50;61.10
58875;BME280;44652;49.040;12.126;2024-02-26T11:20:01;96051.16;;;9.61;61.59
58875;BME280;44652;49.040;12.126;2024-02-26T11:22:32;96052.09;;;9.67;60.18
58875;BME280;44652;49.040;12.126;2024-02-26T11:25:00;96051.25;;;9.76;61.93
58875;BME280;44652;49.040;12.126;2024-02-26T11:27:33;96044.09;;;9.50;60.90
58875;BME280;44652;49.040;12.126;2024-02-26T11:30:01;96045.94;;;9.67;60.39
58875;BME280;44652;49.040;12.126;2024-02-26T11:32:32;96045.13;;;9.88;60.39
58875;BME280;44652;49.040;12.126;2024-02-26T11:38:37;96045.13;;;9.88;62.75
58875;BME280;44652;49.040;12.126;2024-02-26T11:41:04;96029.22;;;9.48;63.71
58875;BME280;44652;49.040;12.126;2024-02-26T11:43:57;96052.97;;;9.66;63.41
58875;BME280;44652;49.040;12.126;2024-02-26T11:46:31;96039.63;;;9.30;62.15
58875;BME280;44652;49.040;12.126;2024-02-26T11:51:55;96040.41;;;9.15;63.51
58875;BME280;44652;49.040;12.126;2024-02-26T11:54:47;96032.38;;;8.90;63.08
58875;BME280;44652;49.040;12.126;2024-02-26T11:59:49;96033.25;;;8.94;62.93
58875;BME280;44652;49.040;12.126;2024-02-26T12:05:18;96046.44;;;9.00;63.71
58875;BME280;44652;49.040;12.126;2024-02-26T12:07:54;96049.00;;;8.91;64.42
58875;BME280;44652;49.040;12.126;2024-02-26T12:10:30;96063.22;;;9.23;63.35
58875;BME280;44652;49.040;12.126;2024-02-26T12:13:10;96045.75;;;9.30;63.59
58875;BME280;44652;49.040;12.126;2024-02-26T12:15:54;96054.56;;;9.38;63.96
58875;BME280;44652;49.040;12.126;2024-02-26T12:18:22;96048.56;;;9.68;62.19
58875;BME280;44652;49.040;12.126;2024-02-26T12:21:02;96058.25;;;9.74;61.51
58875;BME280;44652;49.040;12.126;2024-02-26T12:23:30;96041.56;;;9.67;61.93
58875;BME280;44652;49.040;12.126;2024-02-26T12:26:01;96058.22;;;9.69;59.34
58875;BME280;44652;49.040;12.126;2024-02-26T12:28:33;96056.22;;;9.24;59.94
58875;BME280;44652;49.040;12.126;2024-02-26T12:31:00;96054.53;;;9.35;60.22
58875;BME280;44652;49.040;12.126;2024-02-26T12:33:28;96058.09;;;9.45;60.57
58875;BME280;44652;49.040;12.126;2024-02-26T12:35:56;96058.03;;;9.30;59.17
58875;BME280;44652;49.040;12.126;2024-02-26T12:38:24;96061.56;;;9.36;59.34
58875;BME280;44652;49.040;12.126;2024-02-26T12:40:51;96080.91;;;9.44;59.67
58875;BME280;44652;49.040;12.126;2024-02-26T12:43:18;96084.47;;;9.57;58.79
58875;BME280;44652;49.040;12.126;2024-02-26T12:45:45;96075.69;;;9.57;59.23
58875;BME280;44652;49.040;12.126;2024-02-26T12:48:13;96082.72;;;9.56;58.98
58875;BME280;44652;49.040;12.126;2024-02-26T12:50:44;96065.31;;;9.81;59.45
58875;BME280;44652;49.040;12.126;2024-02-26T12:53:11;96073.28;;;10.09;58.94
58875;BME280;44652;49.040;12.126;2024-02-26T12:55:38;96088.31;;;10.40;58.28
58875;BME280;44652;49.040;12.126;2024-02-26T12:58:06;96095.41;;;10.90;58.19
58875;BME280;44652;49.040;12.126;2024-02-26T13:00:34;96078.75;;;10.76;57.46
58875;BME280;44652;49.040;12.126;2024-02-26T13:03:01;96084.88;;;11.33;56.75
58875;BME280;44652;49.040;12.126;2024-02-26T13:05:28;96068.16;;;11.34;54.86
58875;BME280;44652;49.040;12.126;2024-02-26T13:07:56;96057.53;;;11.62;53.70
58875;BME280;44652;49.040;12.126;2024-02-26T13:10:23;96050.22;;;12.33;51.78
58875;BME280;44652;49.040;12.126;2024-02-26T13:12:51;96056.63;;;13.20;50.67
58875;BME280;44652;49.040;12.126;2024-02-26T13:15:20;96058.16;;;13.45;48.61
58875;BME280;44652;49.040;12.126;2024-02-26T13:17:49;96048.19;;;13.70;47.42
58875;BME280;44652;49.040;12.126;2024-02-26T13:20:34;96073.69;;;14.48;47.39
58875;BME280;44652;49.040;12.126;2024-02-26T13:23:04;96067.91;;;14.85;44.20
58875;BME280;44652;49.040;12.126;2024-02-26T13:25:32;96055.38;;;14.93;42.52
58875;BME280;44652;49.040;12.126;2024-02-26T13:28:16;96058.38;;;15.26;43.41
58875;BME280;44652;49.040;12.126;2024-02-26T13:30:51;96045.13;;;14.70;46.24
58875;BME280;44652;49.040;12.126;2024-02-26T13:33:19;96065.81;;;15.55;46.45
58875;BME280;44652;49.040;12.126;2024-02-26T13:35:47;96081.66;;;15.61;46.23
58875;BME280;44652;49.040;12.126;2024-02-26T13:38:14;96062.88;;;15.73;45.45
58875;BME280;44652;49.040;12.126;2024-02-26T13:40:41;96083.63;;;14.97;46.63
58875;BME280;44652;49.040;12.126;2024-02-26T13:43:07;96056.56;;;15.28;44.77
58875;BME280;44652;49.040;12.126;2024-02-26T13:45:35;96068.00;;;15.82;46.44
58875;BME280;44652;49.040;12.126;2024-02-26T13:48:07;96058.31;;;15.80;46.39
58875;BME280;44652;49.040;12.126;2024-02-26T13:50:41;96049.13;;;16.38;45.32
58875;BME280;44652;49.040;12.126;2024-02-26T13:53:09;96050.16;;;14.25;47.99
58875;BME280;44652;49.040;12.126;2024-02-26T13:55:37;96066.50;;;15.17;47.81
58875;BME280;44652;49.040;12.126;2024-02-26T13:58:04;96061.22;;;15.65;46.18
58875;BME280;44652;49.040;12.126;2024-02-26T14:00:31;96059.28;;;15.76;45.55
58875;BME280;44652;49.040;12.126;2024-02-26T14:03:01;96073.44;;;15.75;45.66
58875;BME280;44652;49.040;12.126;2024-02-26T14:05:28;96084.78;;;15.33;46.50
58875;BME280;44652;49.040;12.126;2024-02-26T14:07:56;96062.72;;;14.77;47.73
58875;BME280;44652;49.040;12.126;2024-02-26T14:10:23;96057.03;;;14.39;49.55
58875;BME280;44652;49.040;12.126;2024-02-26T14:12:50;96066.88;;;14.32;49.40
58875;BME280;44652;49.040;12.126;2024-02-26T14:15:17;96068.88;;;14.78;49.01
58875;BME280;44652;49.040;12.126;2024-02-26T14:17:44;96064.56;;;14.71;48.78
58875;BME280;44652;49.040;12.126;2024-02-26T14:20:12;96068.72;;;14.87;47.87
58875;BME280;44652;49.040;12.126;2024-02-26T14:22:39;96057.31;;;14.19;48.33
58875;BME280;44652;49.040;12.126;2024-02-26T14:25:06;96054.91;;;13.99;48.55
58875;BME280;44652;49.040;12.126;2024-02-26T14:27:36;96069.28;;;13.78;49.00
58875;BME280;44652;49.040;12.126;2024-02-26T14:30:03;96083.38;;;13.78;49.61
58875;BME280;44652;49.040;12.126;2024-02-26T14:32:31;96078.34;;;13.52;49.24
58875;BME280;44652;49.040;12.126;2024-02-26T14:35:01;96083.84;;;13.32;49.97
58875;BME280;44652;49.040;12.126;2024-02-26T14:37:29;96080.59;;;12.98;51.32
58875;BME280;44652;49.040;12.126;2024-02-26T14:39:56;96085.78;;;13.09;52.00
58875;BME280;44652;49.040;12.126;2024-02-26T14:42:22;96083.38;;;12.78;52.02
58875;BME280;44652;49.040;12.126;2024-02-26T14:44:50;96097.63;;;12.59;53.20
58875;BME280;44652;49.040;12.126;2024-02-26T14:47:17;96097.66;;;12.50;54.53
58875;BME280;44652;49.040;12.126;2024-02-26T14:49:44;96094.19;;;12.38;55.26
58875;BME280;44652;49.040;12.126;2024-02-26T14:52:14;96064.38;;;12.12;54.99
58875;BME280;44652;49.040;12.126;2024-02-26T14:54:41;96083.78;;;12.12;55.60
58875;BME280;44652;49.040;12.126;2024-02-26T14:57:08;96087.19;;;12.33;55.89
58875;BME280;44652;49.040;12.126;2024-02-26T14:59:35;96086.38;;;12.15;56.12
58875;BME280;44652;49.040;12.126;2024-02-26T15:02:03;96095.25;;;12.02;56.21
58875;BME280;44652;49.040;12.126;2024-02-26T15:04:30;96095.38;;;11.49;57.54
58875;BME280;44652;49.040;12.126;2024-02-26T15:06:57;96098.94;;;11.34;58.23
58875;BME280;44652;49.040;12.126;2024-02-26T15:09:24;96127.94;;;11.12;60.01
58875;BME280;44652;49.040;12.126;2024-02-26T15:11:51;96119.16;;;11.27;60.87
58875;BME280;44652;49.040;12.126;2024-02-26T15:14:18;96114.75;;;11.08;59.51
58875;BME280;44652;49.040;12.126;2024-02-26T15:16:44;96124.41;;;10.78;60.35
58875;BME280;44652;49.040;12.126;2024-02-26T15:19:11;96131.44;;;10.82;60.53
58875;BME280;44652;49.040;12.126;2024-02-26T15:21:43;96132.28;;;10.66;61.36
58875;BME280;44652;49.040;12.126;2024-02-26T15:24:11;96138.44;;;10.91;61.25
58875;BME280;44652;49.040;12.126;2024-02-26T15:27:03;96136.66;;;10.62;61.10
58875;BME280;44652;49.040;12.126;2024-02-26T15:29:39;96118.09;;;10.21;61.70
58875;BME280;44652;49.040;12.126;2024-02-26T15:32:06;96117.19;;;10.19;62.32
58875;BME280;44652;49.040;12.126;2024-02-26T15:34:33;96128.38;;;9.69;64.28
58875;BME280;44652;49.040;12.126;2024-02-26T15:36:59;96125.47;;;9.26;65.90
58875;BME280;44652;49.040;12.126;2024-02-26T15:39:26;96112.38;;;9.32;65.86
58875;BME280;44652;49.040;12.126;2024-02-26T15:41:53;96126.06;;;8.93;67.87
58875;BME280;44652;49.040;12.126;2024-02-26T15:44:20;96146.44;;;9.17;68.04
58875;BME280;44652;49.040;12.126;2024-02-26T15:46:47;96156.16;;;9.29;69.07
58875;BME280;44652;49.040;12.126;2024-02-26T15:49:13;96154.31;;;9.18;68.93
58875;BME280;44652;49.040;12.126;2024-02-26T15:51:42;96171.78;;;9.12;69.17
58875;BME280;44652;49.040;12.126;2024-02-26T15:54:09;96172.69;;;9.15;69.38
58875;BME280;44652;49.040;12.126;2024-02-26T15:56:36;96185.91;;;9.21;69.94
58875;BME280;44652;49.040;12.126;2024-02-26T15:59:05;96172.28;;;8.68;70.64
58875;BME280;44652;49.040;12.126;2024-02-26T16:01:31;96197.63;;;8.67;71.51
58875;BME280;44652;49.040;12.126;2024-02-26T16:03:58;96184.00;;;8.24;72.61
58875;BME280;44652;49.040;12.126;2024-02-26T16:06:32;96202.50;;;8.37;72.88
58875;BME280;44652;49.040;12.126;2024-02-26T16:08:59;96198.84;;;8.24;73.39
58875;BME280;44652;49.040;12.126;2024-02-26T16:11:26;96214.66;;;8.28;73.67
58875;BME280;44652;49.040;12.126;2024-02-26T16:14:07;96200.34;;;8.03;74.03
58875;BME280;44652;49.040;12.126;2024-02-26T16:16:38;96201.03;;;7.89;75.17
58875;BME280;44652;49.040;12.126;2024-02-26T16:19:13;96217.81;;;8.00;75.68
58875;BME280;44652;49.040;12.126;2024-02-26T16:21:45;96219.56;;;8.01;75.55
58875;BME280;44652;49.040;12.126;2024-02-26T16:24:12;96208.69;;;7.73;76.41
58875;BME280;44652;49.040;12.126;2024-02-26T16:26:39;96217.25;;;7.62;77.62
58875;BME280;44652;49.040;12.126;2024-02-26T16:29:06;96217.91;;;7.50;78.60
58875;BME280;44652;49.040;12.126;2024-02-26T16:31:33;96215.16;;;7.39;80.16
58875;BME280;44652;49.040;12.126;2024-02-26T16:34:08;96224.91;;;7.49;78.98
58875;BME280;44652;49.040;12.126;2024-02-26T16:36:35;96218.47;;;7.29;80.19
58875;BME280;44652;49.040;12.126;2024-02-26T16:39:02;96221.97;;;7.28;80.45
58875;BME280;44652;49.040;12.126;2024-02-26T16:41:35;96206.06;;;7.19;80.53
58875;BME280;44652;49.040;12.126;2024-02-26T16:44:02;96233.97;;;7.15;81.14
58875;BME280;44652;49.040;12.126;2024-02-26T16:46:30;96223.41;;;7.11;81.45
58875;BME280;44652;49.040;12.126;2024-02-26T16:48:56;96223.41;;;7.11;81.57
58875;BME280;44652;49.040;12.126;2024-02-26T16:51:23;96235.38;;;6.96;81.70
58875;BME280;44652;49.040;12.126;2024-02-26T16:53:50;96219.59;;;6.92;82.05
58875;BME280;44652;49.040;12.126;2024-02-26T16:56:16;96231.00;;;6.95;82.33
58875;BME280;44652;49.040;12.126;2024-02-26T16:58:43;96244.78;;;6.85;82.32
58875;BME280;44652;49.040;12.126;2024-02-26T17:01:10;96214.50;;;6.52;82.91
58875;BME280;44652;49.040;12.126;2024-02-26T17:03:40;96250.22;;;6.50;83.79
58875;BME280;44652;49.040;12.126;2024-02-26T17:06:07;96235.03;;;6.32;84.31
58875;BME280;44652;49.040;12.126;2024-02-26T17:08:34;96257.03;;;6.41;84.36
58875;BME280;44652;49.040;12.126;2024-02-26T17:11:02;96253.25;;;6.28;84.57
58875;BME280;44652;49.040;12.126;2024-02-26T17:13:31;96257.75;;;6.33;84.33
58875;BME280;44652;49.040;12.126;2024-02-26T17:15:57;96251.81;;;6.01;85.40
58875;BME280;44652;49.040;12.126;2024-02-26T17:18:24;96244.19;;;6.11;84.15
58875;BME280;44652;49.040;12.126;2024-02-26T17:20:51;96250.22;;;6.08;84.67
58875;BME280;44652;49.040;12.126;2024-02-26T17:23:18;96245.69;;;5.99;83.93
58875;BME280;44652;49.040;12.126;2024-02-26T17:25:44;96245.00;;;6.08;84.30
58875;BME280;44652;49.040;12.126;2024-02-26T17:28:11;96249.53;;;6.17;84.02
58875;BME280;44652;49.040;12.126;2024-02-26T17:30:38;96262.59;;;6.15;83.58
58875;BME280;44652;49.040;12.126;2024-02-26T17:33:06;96264.91;;;6.01;84.43
58875;BME280;44652;49.040;12.126;2024-02-26T17:35:33;96266.56;;;5.98;85.03
58875;BME280;44652;49.040;12.126;2024-02-26T17:38:00;96266.88;;;5.75;85.80
58875;BME280;44652;49.040;12.126;2024-02-26T17:40:27;96278.47;;;5.86;85.02
58875;BME280;44652;49.040;12.126;2024-02-26T17:42:55;96264.78;;;5.95;85.18
58875;BME280;44652;49.040;12.126;2024-02-26T17:45:22;96281.59;;;6.08;85.39
58875;BME280;44652;49.040;12.126;2024-02-26T17:47:50;96289.81;;;5.87;85.84
58875;BME280;44652;49.040;12.126;2024-02-26T17:50:17;96282.91;;;5.91;85.37
58875;BME280;44652;49.040;12.126;2024-02-26T17:52:45;96291.19;;;5.71;85.81
58875;BME280;44652;49.040;12.126;2024-02-26T17:55:11;96278.97;;;5.70;85.53
58875;BME280;44652;49.040;12.126;2024-02-26T17:57:38;96297.38;;;5.75;86.03
58875;BME280;44652;49.040;12.126;2024-02-26T18:00:07;96272.94;;;5.73;85.97
58875;BME280;44652;49.040;12.126;2024-02-26T18:02:34;96291.38;;;5.79;85.56
58875;BME280;44652;49.040;12.126;2024-02-26T18:05:00;96302.06;;;5.88;84.73
58875;BME280;44652;49.040;12.126;2024-02-26T18:07:27;96280.56;;;5.64;85.50
58875;BME280;44652;49.040;12.126;2024-02-26T18:09:54;96289.25;;;5.63;86.63
58875;BME280;44652;49.040;12.126;2024-02-26T18:12:20;96284.91;;;5.63;85.74
58875;BME280;44652;49.040;12.126;2024-02-26T18:14:47;96295.47;;;5.68;85.65
58875;BME280;44652;49.040;12.126;2024-02-26T18:17:14;96313.75;;;5.68;85.26
58875;BME280;44652;49.040;12.126;2024-02-26T18:19:41;96291.88;;;5.64;85.58
58875;BME280;44652;49.040;12.126;2024-02-26T18:22:08;96309.28;;;5.62;85.61
58875;BME280;44652;49.040;12.126;2024-02-26T18:24:34;96300.47;;;5.57;86.07
58875;BME280;44652;49.040;12.126;2024-02-26T18:27:02;96319.19;;;5.41;86.25